Time;durP1;ratioP1;P1;durP2;ratioP2;P2;SDS_P1;SDS_P2;PMS_P1;PMS_P2;Temp;Humidity;BMP_temperature;BMP_pressure;BME280_temperature;BME280_humidity;BME280_pressure;Samples;Min_cycle;Max_cycle;Signal;HPM_P1;HPM_P2
2022/06/01 00:00:56;;;;;;;9.95;6.90;;;;;;;18.61;95.30;100663.56;5062113;28;20044;-72
2022/06/01 00:03:24;;;;;;;15.48;6.47;;;;;;;18.63;94.04;100659.94;5080598;28;20160;-73
2022/06/01 00:05:53;;;;;;;10.75;4.85;;;;;;;18.38;95.44;100611.06;5072946;28;20107;-73
2022/06/01 00:08:22;;;;;;;8.32;5.20;;;;;;;18.12;95.75;100588.78;5071119;28;20156;-73
2022/06/01 00:10:49;;;;;;;8.00;5.05;;;;;;;18.18;96.37;100630.25;5079486;28;20040;-73
2022/06/01 00:13:15;;;;;;;7.60;5.45;;;;;;;18.51;95.53;100660.28;5079659;28;20071;-74
2022/06/01 00:15:41;;;;;;;13.88;6.15;;;;;;;18.41;95.77;100651.72;5082725;28;20060;-74
2022/06/01 00:18:08;;;;;;;14.38;6.32;;;;;;;18.30;96.51;100627.22;5081584;28;20090;-75
2022/06/01 00:20:35;;;;;;;12.00;6.63;;;;;;;18.32;96.75;100652.84;5084776;28;20066;-75
2022/06/01 00:23:02;;;;;;;10.07;6.13;;;;;;;18.39;97.53;100652.69;5080414;28;20076;-74
2022/06/01 00:25:28;;;;;;;11.30;6.30;;;;;;;18.30;97.30;100645.84;5081440;28;20105;-75
2022/06/01 00:27:53;;;;;;;13.68;6.18;;;;;;;18.43;96.26;100652.56;5081098;28;20127;-75
2022/06/01 00:30:21;;;;;;;9.60;6.07;;;;;;;17.90;95.76;100568.13;5083431;28;20095;-75
2022/06/01 00:32:53;;;;;;;13.55;5.72;;;;;;;18.48;94.15;100634.69;5063693;28;20028;-75
2022/06/01 00:35:20;;;;;;;15.30;5.80;;;;;;;18.12;94.05;100564.88;5081803;28;20122;-74
2022/06/01 00:37:46;;;;;;;11.02;5.78;;;;;;;17.97;95.98;100575.94;5082434;28;20055;-75
2022/06/01 00:40:15;;;;;;;11.57;5.93;;;;;;;18.33;96.64;100640.41;5080630;28;20053;-75
2022/06/01 00:42:43;;;;;;;15.52;7.72;;;;;;;18.29;96.33;100647.63;5081253;28;20056;-75
2022/06/01 00:45:10;;;;;;;8.40;5.55;;;;;;;17.78;96.33;100549.88;5080445;28;20107;-75
2022/06/01 00:47:36;;;;;;;9.00;5.78;;;;;;;17.91;95.82;100555.72;5082468;28;20035;-74
2022/06/01 00:50:17;;;;;;;9.32;6.57;;;;;;;18.31;96.69;100624.53;5081719;28;20060;-74
2022/06/01 00:52:50;;;;;;;13.38;5.65;;;;;;;18.52;95.44;100628.38;5084916;28;20123;-75
2022/06/01 00:55:18;;;;;;;8.88;6.93;;;;;;;18.39;95.76;100626.97;5067000;28;20170;-75
2022/06/01 00:57:48;;;;;;;7.93;5.90;;;;;;;17.96;95.82;100558.25;5086094;28;20040;-75
2022/06/01 01:00:20;;;;;;;8.38;5.57;;;;;;;18.40;94.71;100620.72;5066621;28;20044;-75
2022/06/01 01:02:47;;;;;;;10.32;7.07;;;;;;;17.97;95.00;100544.09;5085431;28;20758;-74
2022/06/01 01:05:15;;;;;;;9.43;7.70;;;;;;;18.41;95.06;100611.00;5066379;28;20387;-75
2022/06/01 01:07:43;;;;;;;10.63;6.30;;;;;;;18.41;94.82;100614.53;5065385;28;20450;-75
2022/06/01 01:10:12;;;;;;;19.95;7.68;;;;;;;18.44;94.30;100611.75;5086791;28;20047;-75
2022/06/01 01:12:59;;;;;;;12.90;7.80;;;;;;;17.99;94.44;100544.91;5081984;28;20052;-73
2022/06/01 01:15:34;;;;;;;9.77;5.95;;;;;;;18.39;93.31;100616.34;5040584;28;20512;-73
2022/06/01 01:18:06;;;;;;;12.23;6.72;;;;;;;18.42;93.50;100629.53;5062426;28;20028;-73
2022/06/01 01:20:35;;;;;;;12.85;7.47;;;;;;;18.09;94.05;100572.94;5064666;28;20029;-74
2022/06/01 01:23:31;;;;;;;9.75;6.10;;;;;;;18.31;94.59;100600.63;5063601;28;20040;-74
2022/06/01 01:25:57;;;;;;;19.52;7.28;;;;;;;17.76;94.10;100517.19;5043575;28;20055;-73
2022/06/01 01:28:22;;;;;;;10.35;5.57;;;;;;;18.30;94.53;100617.47;5061863;28;20041;-73
2022/06/01 01:31:06;;;;;;;12.80;6.22;;;;;;;17.91;94.27;100543.34;5066326;28;20043;-74
2022/06/01 01:33:33;;;;;;;9.88;7.05;;;;;;;18.05;94.13;100580.13;5069557;28;20052;-73
2022/06/01 01:36:10;;;;;;;10.02;6.13;;;;;;;17.84;94.30;100531.16;5062367;28;20040;-73
2022/06/01 01:38:54;;;;;;;10.85;6.80;;;;;;;18.31;94.44;100608.59;5066686;28;20044;-73
2022/06/01 01:41:23;;;;;;;10.98;5.75;;;;;;;18.27;94.41;100603.44;5061178;28;20512;-73
2022/06/01 01:43:57;;;;;;;18.63;6.70;;;;;;;17.73;95.30;100517.28;5054603;28;20045;-73
2022/06/01 01:46:23;;;;;;;9.85;5.93;;;;;;;18.23;95.16;100594.66;5067421;28;20044;-73
2022/06/01 01:48:48;;;;;;;14.77;6.70;;;;;;;17.85;94.82;100540.84;5061553;28;20488;-73
2022/06/01 01:51:23;;;;;;;11.65;7.03;;;;;;;18.21;95.13;100590.31;5059972;28;20440;-73
2022/06/01 01:53:51;;;;;;;13.60;5.72;;;;;;;18.19;94.94;100587.72;5044229;28;20760;-73
2022/06/01 01:56:28;;;;;;;9.07;6.50;;;;;;;18.33;95.16;100601.47;5063993;28;20028;-74
2022/06/01 01:59:13;;;;;;;6.68;5.20;;;;;;;17.88;94.49;100529.28;5066663;28;20053;-75
2022/06/01 02:02:19;;;;;;;8.80;6.13;;;;;;;18.13;94.67;100585.22;5053346;28;20080;-75
2022/06/01 02:07:50;;;;;;;9.15;7.53;;;;;;;18.13;95.53;100590.53;5046285;28;20071;-74
2022/06/01 02:13:01;;;;;;;7.90;6.60;;;;;;;17.56;96.12;100511.56;5064724;28;20095;-74
2022/06/01 02:15:32;;;;;;;10.90;6.10;;;;;;;18.06;97.07;100592.50;5064185;28;20099;-73
2022/06/01 02:18:05;;;;;;;10.30;6.05;;;;;;;17.37;96.93;100520.03;5060256;28;20037;-73
2022/06/01 02:20:34;;;;;;;14.00;6.10;;;;;;;17.98;97.68;100596.25;5046499;28;20052;-73
2022/06/01 02:23:01;;;;;;;11.45;5.97;;;;;;;17.94;97.45;100595.50;5041597;28;20048;-73
2022/06/01 02:25:29;;;;;;;12.85;6.88;;;;;;;17.77;97.45;100608.31;5051579;28;20102;-74
2022/06/01 02:27:57;;;;;;;10.63;6.28;;;;;;;17.43;97.34;100542.88;5043766;28;20078;-73
2022/06/01 02:30:31;;;;;;;12.10;6.05;;;;;;;17.96;95.50;100611.34;5045018;28;20059;-73
2022/06/01 02:33:00;;;;;;;8.15;5.65;;;;;;;17.61;95.10;100555.66;5060254;28;20120;-73
2022/06/01 02:35:29;;;;;;;14.10;6.18;;;;;;;17.92;94.93;100607.94;5063461;28;20035;-73
2022/06/01 02:37:58;;;;;;;11.20;6.03;;;;;;;17.82;95.79;100612.63;5046536;28;20147;-73
2022/06/01 02:40:26;;;;;;;8.65;5.63;;;;;;;17.91;95.09;100624.75;5042754;28;20060;-74
2022/06/01 02:42:53;;;;;;;18.25;5.22;;;;;;;17.47;95.60;100561.31;5062150;28;20040;-73
2022/06/01 02:45:22;;;;;;;7.97;5.63;;;;;;;17.45;94.89;100546.34;5063918;28;20063;-74
2022/06/01 02:47:52;;;;;;;10.32;6.32;;;;;;;17.67;94.77;100582.00;5052944;28;20067;-74
2022/06/01 02:50:20;;;;;;;11.65;6.65;;;;;;;17.44;94.70;100542.84;5042818;28;20033;-74
2022/06/01 02:52:46;;;;;;;6.95;5.43;;;;;;;17.57;94.20;100569.03;5063307;28;20270;-73
2022/06/01 02:55:15;;;;;;;11.45;6.28;;;;;;;17.91;93.94;100624.75;5064273;28;20043;-73
2022/06/01 02:57:42;;;;;;;14.02;6.43;;;;;;;17.56;94.37;100600.00;5063829;28;20044;-74
2022/06/01 03:00:17;;;;;;;13.05;5.90;;;;;;;17.86;94.33;100631.97;5062965;28;20099;-73
2022/06/01 03:02:45;;;;;;;8.90;6.05;;;;;;;17.87;94.28;100653.19;5063537;28;20166;-73
2022/06/01 03:05:15;;;;;;;8.55;5.20;;;;;;;17.34;94.22;100566.97;5063514;28;20044;-73
2022/06/01 03:07:42;;;;;;;8.18;5.45;;;;;;;17.63;94.21;100606.00;5061409;28;20504;-74
2022/06/01 03:10:09;;;;;;;9.48;5.68;;;;;;;17.70;94.01;100636.81;5061940;28;20122;-74
2022/06/01 03:12:41;;;;;;;11.25;6.50;;;;;;;17.51;93.39;100583.31;5061849;28;20072;-73
2022/06/01 03:15:09;;;;;;;8.63;5.78;;;;;;;17.96;93.74;100652.09;5078601;28;20071;-74
2022/06/01 03:17:35;;;;;;;7.45;5.82;;;;;;;18.01;93.21;100641.34;5064455;28;20044;-74
2022/06/01 03:20:01;;;;;;;11.32;5.82;;;;;;;17.99;93.48;100640.50;5059318;28;20066;-74
2022/06/01 03:22:27;;;;;;;8.95;5.88;;;;;;;17.70;93.81;100605.81;5083651;28;20071;-73
2022/06/01 03:24:53;;;;;;;10.82;5.35;;;;;;;17.69;93.31;100617.34;5083087;28;20040;-73
2022/06/01 03:27:19;;;;;;;9.13;5.93;;;;;;;17.62;93.76;100604.28;5081705;28;20515;-74
2022/06/01 03:29:45;;;;;;;9.63;5.63;;;;;;;17.79;93.41;100625.06;5079317;28;20036;-74
2022/06/01 03:32:12;;;;;;;7.72;5.45;;;;;;;17.91;93.03;100638.94;5082045;28;20612;-74
2022/06/01 03:34:38;;;;;;;10.65;6.32;;;;;;;17.85;93.12;100614.31;5075731;28;20040;-74
2022/06/01 03:37:09;;;;;;;8.27;5.57;;;;;;;18.00;92.16;100653.72;5059630;28;20173;-74
2022/06/01 03:39:35;;;;;;;8.38;5.22;;;;;;;17.55;91.79;100578.81;5078968;28;20048;-74
2022/06/01 03:42:03;;;;;;;9.57;6.15;;;;;;;17.76;92.59;100643.72;5048702;28;20032;-74
2022/06/01 03:47:12;;;;;;;8.52;6.10;;;;;;;17.90;92.08;100671.69;5082472;28;20098;-73
2022/06/01 03:49:38;;;;;;;10.63;5.43;;;;;;;17.91;91.30;100656.63;5082501;28;20052;-74
2022/06/01 03:52:07;;;;;;;12.80;5.13;;;;;;;17.87;91.71;100626.63;5084023;28;20093;-74
2022/06/01 03:54:34;;;;;;;7.28;4.18;;;;;;;17.49;91.16;100582.50;5066048;28;20138;-73
2022/06/01 03:57:00;;;;;;;5.88;4.60;;;;;;;17.85;90.16;100668.28;5082628;28;20043;-74
2022/06/01 03:59:25;;;;;;;12.73;5.13;;;;;;;17.91;90.13;100662.81;5082276;28;20028;-73
2022/06/01 04:01:51;;;;;;;8.00;5.00;;;;;;;17.78;90.30;100663.16;5081234;28;20067;-73
2022/06/01 04:04:16;;;;;;;8.05;4.60;;;;;;;17.77;90.45;100666.69;5083344;28;20051;-73
2022/06/01 04:06:42;;;;;;;9.63;4.85;;;;;;;17.69;90.18;100674.84;5082655;28;20109;-73
2022/06/01 04:09:08;;;;;;;7.22;4.95;;;;;;;17.69;90.25;100661.59;5065447;28;20556;-73
2022/06/01 04:11:33;;;;;;;13.55;4.30;;;;;;;17.25;89.90;100606.06;5083844;28;20093;-74
2022/06/01 04:13:59;;;;;;;8.57;4.85;;;;;;;17.72;88.84;100669.47;5065761;28;20048;-73
2022/06/01 04:16:25;;;;;;;18.38;4.63;;;;;;;17.92;89.06;100669.88;5079126;28;20476;-72
2022/06/01 04:18:51;;;;;;;12.30;4.50;;;;;;;17.59;88.15;100597.28;5044200;28;20048;-74
2022/06/01 04:21:21;;;;;;;9.38;5.88;;;;;;;18.02;88.12;100656.34;5084927;28;20055;-75
2022/06/01 04:23:48;;;;;;;7.35;4.70;;;;;;;17.59;88.56;100575.19;5083665;28;20032;-74
2022/06/01 04:26:16;;;;;;;14.18;5.97;;;;;;;18.54;86.78;100655.78;5085647;28;20047;-74
2022/06/01 04:28:46;;;;;;;18.83;4.38;;;;;;;18.20;85.69;100593.91;5086503;28;20044;-75
2022/06/01 04:31:13;;;;;;;11.02;5.15;;;;;;;17.90;86.89;100568.13;5087215;28;20058;-73
2022/06/01 04:33:42;;;;;;;7.60;4.97;;;;;;;18.65;87.26;100665.22;5082785;28;20044;-72
2022/06/01 04:36:07;;;;;;;7.32;5.60;;;;;;;18.26;86.47;100591.03;5084622;28;20060;-73
2022/06/01 04:38:33;;;;;;;13.80;5.97;;;;;;;18.88;84.81;100653.94;5088894;28;21129;-74
2022/06/01 04:40:58;;;;;;;10.63;5.78;;;;;;;19.09;83.79;100650.59;5063894;28;20082;-73
2022/06/01 04:43:24;;;;;;;8.88;5.45;;;;;;;19.02;83.91;100662.34;5084271;28;20066;-73
2022/06/01 04:45:51;;;;;;;11.30;5.63;;;;;;;19.13;83.11;100644.28;5086557;28;20040;-73
2022/06/01 04:48:16;;;;;;;20.95;4.82;;;;;;;19.16;82.92;100614.91;5088921;28;20113;-73
2022/06/01 04:50:42;;;;;;;10.45;5.30;;;;;;;18.97;82.76;100598.66;5086376;28;20051;-73
2022/06/01 04:53:15;;;;;;;12.32;5.93;;;;;;;19.44;82.59;100656.59;5085718;28;20044;-74
2022/06/01 04:55:44;;;;;;;9.45;5.88;;;;;;;19.69;82.23;100671.75;5066588;28;20047;-74
2022/06/01 04:58:11;;;;;;;18.88;5.50;;;;;;;19.34;81.67;100613.44;5085184;28;20047;-73
2022/06/01 05:00:39;;;;;;;14.30;5.15;;;;;;;19.16;82.05;100590.97;5082546;28;20048;-72
2022/06/01 05:03:05;;;;;;;6.90;5.70;;;;;;;19.48;81.33;100591.69;5067869;28;20043;-72
2022/06/01 05:05:31;;;;;;;12.93;5.45;;;;;;;19.91;80.35;100648.81;5087387;28;20366;-72
2022/06/01 05:07:57;;;;;;;11.18;5.32;;;;;;;20.43;79.65;100665.59;5085714;28;20086;-73
2022/06/01 05:10:24;;;;;;;7.05;5.57;;;;;;;20.15;80.95;100660.38;5068440;28;20071;-74
2022/06/01 05:12:49;;;;;;;10.15;5.25;;;;;;;20.37;80.06;100662.25;5086733;28;20055;-74
2022/06/01 05:15:15;;;;;;;16.10;6.60;;;;;;;20.47;78.85;100663.69;5084609;28;20079;-74
2022/06/01 05:17:41;;;;;;;8.98;5.38;;;;;;;20.96;79.71;100658.31;5088586;28;20066;-73
2022/06/01 05:20:09;;;;;;;11.88;6.32;;;;;;;20.63;79.19;100600.91;5067936;28;20125;-73
2022/06/01 05:22:35;;;;;;;10.38;5.80;;;;;;;21.42;75.46;100675.19;5083756;28;20052;-74
2022/06/01 05:25:04;;;;;;;10.18;5.47;;;;;;;21.59;77.40;100670.03;5064897;28;20039;-73
2022/06/01 05:27:30;;;;;;;11.75;5.50;;;;;;;21.47;74.31;100612.66;5081928;28;20067;-72
2022/06/01 05:29:56;;;;;;;9.85;5.78;;;;;;;21.84;76.04;100674.31;5063424;28;20040;-73
2022/06/01 05:32:22;;;;;;;13.55;6.35;;;;;;;21.46;74.34;100624.25;5066232;28;20119;-74
2022/06/01 05:34:47;;;;;;;18.10;6.55;;;;;;;22.22;74.77;100679.84;5083576;28;20099;-74
2022/06/01 05:37:13;;;;;;;11.10;5.75;;;;;;;22.26;73.60;100671.63;5084163;28;20055;-74
2022/06/01 05:39:38;;;;;;;9.18;6.07;;;;;;;22.27;74.28;100670.69;5065163;28;20081;-74
2022/06/01 05:42:05;;;;;;;9.45;6.20;;;;;;;22.40;74.63;100672.81;5073879;28;20048;-73
2022/06/01 05:44:30;;;;;;;22.42;6.38;;;;;;;22.77;70.94;100674.69;5083490;28;20042;-73
2022/06/01 05:46:58;;;;;;;10.30;4.90;;;;;;;22.30;70.87;100611.72;5068848;28;20044;-73
2022/06/01 05:49:24;;;;;;;23.92;6.47;;;;;;;22.40;69.51;100636.25;5067189;28;20051;-73
2022/06/01 05:51:53;;;;;;;13.88;5.72;;;;;;;23.05;72.92;100676.94;5083669;28;20466;-75
2022/06/01 05:54:19;;;;;;;7.88;4.32;;;;;;;22.74;68.92;100664.97;5065987;28;20055;-74
2022/06/01 05:56:48;;;;;;;19.95;7.78;;;;;;;22.75;70.75;100672.06;5083485;28;20036;-73
2022/06/01 05:59:15;;;;;;;13.63;6.95;;;;;;;22.55;69.65;100624.84;5083096;28;20039;-72
2022/06/01 06:01:42;;;;;;;10.20;4.55;;;;;;;22.78;68.72;100617.56;5066079;28;20043;-73
2022/06/01 06:04:09;;;;;;;9.35;5.28;;;;;;;22.93;69.94;100607.94;5050975;28;20098;-73
2022/06/01 06:06:35;;;;;;;8.35;4.72;;;;;;;22.79;69.12;100650.53;5062188;28;20056;-73
2022/06/01 06:09:07;;;;;;;6.85;4.63;;;;;;;23.00;68.44;100662.06;5081311;28;20028;-73
2022/06/01 06:11:39;;;;;;;8.07;5.32;;;;;;;23.15;70.34;100656.81;5060811;28;20039;-73
2022/06/01 06:14:07;;;;;;;12.35;4.75;;;;;;;22.87;68.24;100635.81;5084125;28;20062;-74
2022/06/01 06:16:44;;;;;;;16.65;5.50;;;;;;;23.31;67.43;100658.75;5084484;28;20044;-73
2022/06/01 06:19:13;;;;;;;15.70;5.55;;;;;;;22.79;69.35;100608.59;5083669;28;20051;-74
2022/06/01 06:21:39;;;;;;;7.57;4.50;;;;;;;23.02;68.15;100603.97;5080208;28;20036;-74
2022/06/01 06:24:15;;;;;;;15.40;7.07;;;;;;;23.24;66.80;100611.81;5066237;28;20067;-74
2022/06/01 06:26:46;;;;;;;14.05;5.85;;;;;;;23.20;67.09;100608.41;5083977;28;20020;-74
2022/06/01 06:29:14;;;;;;;10.05;5.30;;;;;;;23.34;66.27;100616.66;5082661;28;20044;-74
2022/06/01 06:31:40;;;;;;;7.07;4.18;;;;;;;23.48;67.35;100612.38;5082505;28;20127;-73
2022/06/01 06:34:08;;;;;;;8.20;5.03;;;;;;;23.23;67.26;100618.97;5064432;28;20464;-73
2022/06/01 06:36:35;;;;;;;12.00;5.93;;;;;;;23.85;66.37;100666.81;5079741;28;20078;-74
2022/06/01 06:39:01;;;;;;;11.85;6.00;;;;;;;23.91;65.58;100661.16;5082141;28;20038;-73
2022/06/01 06:41:27;;;;;;;10.80;5.82;;;;;;;24.10;68.29;100669.09;5084831;28;20083;-73
2022/06/01 06:43:53;;;;;;;8.38;4.90;;;;;;;23.73;66.93;100618.22;5063662;28;20123;-74
2022/06/01 06:46:23;;;;;;;10.95;5.25;;;;;;;24.13;64.94;100682.34;5080204;28;20134;-74
2022/06/01 06:48:49;;;;;;;6.45;4.50;;;;;;;23.85;67.23;100605.19;5063154;28;20050;-73
2022/06/01 06:51:16;;;;;;;11.88;5.78;;;;;;;23.87;65.67;100609.50;5082461;28;20826;-73
2022/06/01 06:53:43;;;;;;;7.80;5.55;;;;;;;23.77;64.61;100603.75;5083240;28;20468;-74
2022/06/01 06:56:08;;;;;;;12.98;5.82;;;;;;;24.27;64.51;100655.66;5083606;28;20059;-74
2022/06/01 06:58:35;;;;;;;20.00;6.50;;;;;;;23.71;64.51;100612.06;5074398;28;20131;-72
2022/06/01 07:01:02;;;;;;;13.15;4.85;;;;;;;23.77;64.89;100609.13;5069271;28;20121;-73
2022/06/01 07:03:27;;;;;;;7.00;4.50;;;;;;;24.01;64.48;100665.94;5059050;28;20055;-74
2022/06/01 07:08:40;;;;;;;15.88;6.35;;;;;;;24.18;65.96;100598.00;5084671;28;20042;-73
2022/06/01 07:11:07;;;;;;;11.77;6.88;;;;;;;24.42;65.85;100670.09;5057986;28;20055;-74
2022/06/01 07:13:33;;;;;;;12.55;6.47;;;;;;;23.90;65.38;100600.44;5047051;28;20044;-74
2022/06/01 07:16:15;;;;;;;15.98;7.97;;;;;;;24.18;64.94;100600.69;5061322;28;20632;-74
2022/06/01 07:18:43;;;;;;;;;;;;;;;24.32;64.18;100664.31;5066365;28;20044;-76
2022/06/01 07:21:08;;;;;;;19.67;9.63;;;;;;;24.53;65.19;100662.34;5082547;28;19955;-72
2022/06/01 07:23:37;;;;;;;16.20;8.13;;;;;;;24.31;64.38;100600.91;5084464;28;20085;-74
2022/06/01 07:26:05;;;;;;;11.70;6.35;;;;;;;24.43;64.95;100600.25;5082459;28;20044;-73
2022/06/01 07:28:31;;;;;;;10.73;6.85;;;;;;;24.59;63.24;100619.09;5081720;28;20425;-73
2022/06/01 07:30:57;;;;;;;13.88;5.70;;;;;;;24.51;63.45;100631.19;5080071;28;20047;-74
2022/06/01 07:33:28;;;;;;;12.25;6.68;;;;;;;24.58;62.72;100657.63;5080451;28;20075;-73
2022/06/01 07:35:58;;;;;;;11.85;5.82;;;;;;;24.91;63.18;100623.59;5062173;28;20166;-74
2022/06/01 07:44:05;;;;;;;7.60;5.70;;;;;;;24.76;61.70;100582.38;5076635;28;20094;-75
2022/06/01 07:46:33;;;;;;;14.75;4.90;;;;;;;25.18;60.99;100634.63;5059934;28;20051;-75
2022/06/01 07:48:59;;;;;;;16.98;6.93;;;;;;;25.39;61.23;100638.75;5063391;28;20113;-74
2022/06/01 07:51:24;;;;;;;19.52;5.90;;;;;;;25.51;62.68;100663.19;5051485;28;20102;-75
2022/06/01 07:53:50;;;;;;;6.25;4.45;;;;;;;25.40;62.95;100637.81;5075192;28;20342;-72
2022/06/01 07:56:15;;;;;;;7.53;5.15;;;;;;;25.32;59.71;100649.97;5081923;28;20106;-73
2022/06/01 07:58:41;;;;;;;13.90;7.63;;;;;;;25.00;58.90;100586.34;5057204;28;20103;-79
2022/06/01 08:01:06;;;;;;;8.15;4.65;;;;;;;25.18;61.52;100614.00;5082617;28;20047;-79
2022/06/01 08:03:32;;;;;;;15.43;5.68;;;;;;;25.15;63.50;100648.22;5081204;28;20066;-78
2022/06/01 08:05:57;;;;;;;13.90;8.02;;;;;;;25.49;61.70;100641.78;5088299;28;20059;-78
2022/06/01 08:08:23;;;;;;;13.00;8.63;;;;;;;25.51;62.55;100655.97;5087524;28;20044;-79
2022/06/01 08:10:49;;;;;;;10.98;5.20;;;;;;;25.03;62.33;100602.31;5066702;28;20044;-78
2022/06/01 08:13:15;;;;;;;10.27;5.55;;;;;;;25.54;58.48;100649.56;5065858;28;20095;-82
2022/06/01 08:15:45;;;;;;;9.40;7.05;;;;;;;25.58;62.25;100643.06;5064517;28;20085;-77
2022/06/01 08:18:17;;;;;;;10.40;6.30;;;;;;;25.46;64.10;100591.75;5051016;28;20606;-77
2022/06/01 08:20:43;;;;;;;;;;;;;;;26.05;60.10;100652.81;5038212;28;20113;-78
2022/06/01 08:23:09;;;;;;;14.50;6.07;;;;;;;25.53;59.92;100599.47;5061536;28;19969;-77
2022/06/01 08:25:36;;;;;;;13.30;5.35;;;;;;;26.00;60.30;100644.16;5062034;28;20052;-77
2022/06/01 08:28:02;;;;;;;16.08;6.78;;;;;;;25.87;62.41;100652.09;5062091;28;20044;-82
2022/06/01 08:30:30;;;;;;;14.82;6.82;;;;;;;25.96;60.02;100650.69;5061234;28;20464;-80
2022/06/01 08:33:04;;;;;;;10.85;6.20;;;;;;;25.60;61.34;100588.25;5063789;28;20097;-82
2022/06/01 08:35:33;;;;;;;20.10;7.78;;;;;;;26.66;59.78;100648.16;5040743;28;20036;-80
2022/06/01 08:38:00;;;;;;;12.88;5.57;;;;;;;26.70;59.72;100639.81;5062203;28;20050;-80
2022/06/01 08:40:29;;;;;;;22.42;8.65;;;;;;;25.77;59.58;100571.09;5065664;28;20108;-85
2022/06/01 08:43:01;;;;;;;16.73;5.53;;;;;;;26.86;58.96;100653.16;5064463;28;20055;-84
2022/06/01 08:45:30;;;;;;;28.05;5.93;;;;;;;26.53;53.75;100595.09;5059745;28;20400;-82
2022/06/01 08:47:56;;;;;;;13.27;9.68;;;;;;;26.86;58.58;100591.22;5062771;28;20028;-77
2022/06/01 08:50:29;;;;;;;24.80;6.63;;;;;;;26.46;56.33;100592.91;5061627;28;20571;-81
2022/06/01 08:52:59;;;;;;;12.45;6.22;;;;;;;26.66;54.02;100586.25;5059786;28;20044;-79
2022/06/01 08:55:27;;;;;;;12.45;6.00;;;;;;;26.40;54.31;100647.09;5046632;28;20456;-78
2022/06/01 08:58:19;;;;;;;10.50;6.07;;;;;;;26.51;56.82;100617.69;5062120;28;20071;-79
2022/06/01 09:12:01;;;;;;;;;;;;;;;;;;;;;
2022/06/01 09:25:38;;;;;;;9.90;5.57;;;;;;;27.35;52.48;100612.25;4943531;28;20074;-78
2022/06/01 09:28:18;;;;;;;12.98;7.15;;;;;;;27.68;52.25;100623.56;4959750;28;20824;-80
2022/06/01 09:30:58;;;;;;;16.10;6.35;;;;;;;26.80;54.49;100500.06;5015830;28;20224;-90
2022/06/01 09:40:53;;;;;;;113.75;22.88;;;;;;;28.49;53.33;100571.16;4976401;28;20053;-85
2022/06/01 09:43:59;;;;;;;58.40;11.88;;;;;;;29.20;56.10;100619.03;5038169;28;20605;-86
2022/06/01 09:53:55;;;;;;;17.60;9.45;;;;;;;28.74;48.88;100551.31;4917444;28;20042;-88
2022/06/01 10:40:27;;;;;;;43.78;14.55;;;;;;;29.95;47.86;100590.81;5686774;23;20056;-89
2022/06/01 10:54:01;;;;;;;11.30;5.63;;;;;;;28.72;49.74;100596.47;4909283;29;20035;-84
2022/06/01 10:56:44;;;;;;;11.70;8.00;;;;;;;29.36;49.33;100566.50;4905713;29;20094;-86
2022/06/01 10:59:14;;;;;;;20.73;12.60;;;;;;;29.98;47.78;100581.56;4925444;28;20047;-73
2022/06/01 11:02:03;;;;;;;29.60;15.07;;;;;;;28.94;48.67;100575.00;4940838;28;20051;-72
2022/06/01 11:04:39;;;;;;;31.55;15.85;;;;;;;29.22;48.70;100546.81;4932882;28;20139;-74
2022/06/01 11:07:37;;;;;;;35.55;16.40;;;;;;;29.72;47.16;100575.50;4945105;28;20097;-75
2022/06/01 11:10:25;;;;;;;44.47;21.45;;;;;;;30.13;47.60;100549.72;4924186;28;20106;-75
2022/06/01 11:13:12;;;;;;;40.45;15.85;;;;;;;30.29;47.13;100542.97;4914025;28;20054;-75
2022/06/01 11:15:44;;;;;;;69.18;24.92;;;;;;;30.48;45.90;100577.56;4949492;28;20058;-74
2022/06/01 11:18:36;;;;;;;;;;;;;;;30.56;45.09;100571.53;4937026;28;20051;-75
2022/06/01 11:21:23;;;;;;;66.65;25.85;;;;;;;30.41;43.47;100573.59;4933893;28;19923;-74
2022/06/01 11:24:16;;;;;;;57.95;24.38;;;;;;;29.79;46.25;100526.19;4947256;28;20047;-75
2022/06/01 11:27:09;;;;;;;72.43;28.10;;;;;;;29.86;45.98;100513.06;4949873;28;20034;-75
2022/06/01 11:29:57;;;;;;;52.58;15.43;;;;;;;29.33;47.93;100521.63;4949830;28;20047;-75
2022/06/01 11:33:01;;;;;;;48.17;14.05;;;;;;;28.85;49.49;100537.88;4945160;28;20066;-75
2022/06/01 11:35:37;;;;;;;13.70;7.47;;;;;;;28.04;48.03;100554.56;4946027;28;20063;-75
2022/06/01 11:38:41;;;;;;;94.50;18.42;;;;;;;28.16;53.86;100515.91;4952002;28;20047;-74
2022/06/01 11:41:09;;;;;;;25.63;9.18;;;;;;;28.07;51.56;100493.13;4949691;28;20059;-75
2022/06/01 11:43:47;;;;;;;26.63;11.10;;;;;;;28.11;52.47;100537.81;4947202;28;20047;-74
2022/06/01 11:46:25;;;;;;;18.38;8.68;;;;;;;27.91;53.04;100506.88;4947266;28;20070;-75
2022/06/01 11:48:58;;;;;;;33.42;14.55;;;;;;;28.34;48.15;100535.31;4950021;28;20376;-75
2022/06/01 11:51:48;;;;;;;26.83;7.90;;;;;;;27.52;51.76;100488.94;4950957;28;20054;-75
2022/06/01 11:54:34;;;;;;;20.67;11.30;;;;;;;27.92;50.33;100540.09;4943132;28;20059;-75
2022/06/01 11:57:02;;;;;;;42.72;18.27;;;;;;;27.70;47.84;100474.16;4949033;28;20136;-74
2022/06/01 11:59:27;;;;;;;61.50;24.25;;;;;;;28.18;51.02;100500.47;4950876;28;20038;-75
2022/06/01 12:02:16;;;;;;;27.77;13.32;;;;;;;28.51;47.92;100526.00;4952355;28;20079;-75
2022/06/01 12:05:08;;;;;;;19.50;10.82;;;;;;;28.00;48.41;100499.94;4944697;28;20069;-75
2022/06/01 12:07:43;;;;;;;11.05;6.90;;;;;;;27.90;48.56;100497.03;4949337;28;20067;-74
2022/06/01 12:10:18;;;;;;;19.63;11.48;;;;;;;27.42;49.50;100480.63;4928846;28;20112;-74
2022/06/01 12:12:56;;;;;;;17.50;7.40;;;;;;;27.40;50.99;100477.19;4947407;28;20500;-75
2022/06/01 12:15:39;;;;;;;24.48;13.20;;;;;;;28.12;47.72;100495.50;4948684;28;20877;-75
2022/06/01 12:18:22;;;;;;;20.45;11.00;;;;;;;27.76;48.21;100443.19;4943769;28;20101;-75
2022/06/01 12:21:29;;;;;;;21.75;10.45;;;;;;;28.34;47.22;100471.38;4950614;28;20132;-74
2022/06/01 12:29:33;;;;;;;14.77;7.05;;;;;;;29.05;45.57;100464.25;4952773;28;20053;-74
2022/06/01 12:31:58;;;;;;;9.63;7.25;;;;;;;29.09;45.20;100442.47;4934500;28;20062;-74
2022/06/01 12:34:48;;;;;;;19.65;9.77;;;;;;;29.53;44.06;100497.63;4944135;28;20055;-74
2022/06/01 12:37:27;;;;;;;12.38;6.32;;;;;;;29.54;44.07;100497.47;4948407;28;20238;-74
2022/06/01 12:39:59;;;;;;;14.73;8.20;;;;;;;29.39;43.93;100488.72;4935093;28;20051;-74
2022/06/01 12:42:46;;;;;;;9.93;7.53;;;;;;;29.58;43.00;100498.13;4947175;28;20461;-74
2022/06/01 12:45:17;;;;;;;9.70;5.60;;;;;;;29.22;41.66;100445.91;4945180;28;20050;-74
2022/06/01 12:47:51;;;;;;;11.75;4.50;;;;;;;29.37;41.13;100479.03;4952532;28;20042;-75
2022/06/01 12:50:20;;;;;;;10.73;5.82;;;;;;;29.18;40.49;100468.78;4934150;28;20046;-75
2022/06/01 12:52:47;;;;;;;14.68;6.25;;;;;;;28.97;41.33;100438.81;4938798;28;20046;-75
2022/06/01 12:55:18;;;;;;;11.80;4.18;;;;;;;29.00;40.48;100442.13;4953855;28;20058;-75
2022/06/01 12:57:54;;;;;;;12.25;4.90;;;;;;;29.10;39.35;100433.34;4952544;28;20055;-75
2022/06/01 13:00:31;;;;;;;10.07;5.40;;;;;;;29.07;40.78;100436.28;4934528;28;20053;-74
2022/06/01 13:02:57;;;;;;;50.55;7.93;;;;;;;28.95;39.49;100438.06;4935015;28;20089;-75
2022/06/01 13:05:35;;;;;;;7.40;4.35;;;;;;;28.53;41.66;100448.44;4930726;28;20502;-74
2022/06/01 13:08:03;;;;;;;19.00;5.78;;;;;;;28.98;39.92;100471.13;4953900;28;20074;-73
2022/06/01 13:10:31;;;;;;;18.15;5.25;;;;;;;28.88;41.00;100469.25;4953037;28;20047;-74
2022/06/01 13:13:06;;;;;;;17.00;4.22;;;;;;;28.86;41.24;100477.47;4948574;28;20138;-74
2022/06/01 13:15:32;;;;;;;13.20;5.32;;;;;;;28.90;40.18;100432.19;4943228;28;20347;-74
2022/06/01 13:18:01;;;;;;;7.47;4.70;;;;;;;28.95;39.96;100416.47;4949144;28;20113;-75
2022/06/01 13:20:33;;;;;;;9.63;4.22;;;;;;;28.57;39.94;100406.75;4929060;28;20039;-74
2022/06/01 13:23:01;;;;;;;12.20;4.73;;;;;;;28.76;40.23;100427.81;4949648;28;20065;-74
2022/06/01 13:25:34;;;;;;;8.15;4.03;;;;;;;28.73;40.64;100437.03;4931098;28;20457;-75
2022/06/01 13:28:00;;;;;;;36.97;8.00;;;;;;;28.82;41.68;100474.13;4951389;28;20047;-73
2022/06/01 13:30:29;;;;;;;11.52;5.43;;;;;;;28.95;40.70;100479.47;4949377;28;20062;-73
2022/06/01 13:32:57;;;;;;;9.82;5.13;;;;;;;28.64;40.59;100436.88;4946364;28;20052;-74